Time;durP1;ratioP1;P1;durP2;ratioP2;P2;SDS_P1;SDS_P2;PMS_P1;PMS_P2;Temp;Humidity;BMP_temperature;BMP_pressure;BME280_temperature;BME280_humidity;BME280_pressure;Samples;Min_cycle;Max_cycle;Signal;HPM_P1;HPM_P2
2022/06/25 00:02:05;;;;;;;1.27;0.60;;;16.50;86.10;;;15.51;100.00;95814.13;5003111;28;20092;-64
2022/06/25 00:07:15;;;;;;;1.88;0.80;;;16.60;86.00;;;15.53;100.00;95817.34;5001161;28;20092;-63
2022/06/25 00:09:41;;;;;;;1.35;0.80;;;16.60;85.90;;;15.56;100.00;95822.19;4989991;28;20030;-64
2022/06/25 00:14:52;;;;;;;1.35;0.63;;;16.70;85.70;;;15.57;100.00;95830.97;5000977;28;20048;-65
2022/06/25 00:17:19;;;;;;;1.25;0.70;;;16.70;85.70;;;15.53;100.00;95827.97;5002851;28;20051;-64
2022/06/25 00:19:45;;;;;;;1.27;0.68;;;16.60;85.80;;;15.51;100.00;95824.72;5002790;28;20038;-64
2022/06/25 00:22:11;;;;;;;1.95;0.80;;;16.60;85.60;;;15.48;100.00;95830.50;5005506;28;20473;-65
2022/06/25 00:24:36;;;;;;;2.80;0.93;;;16.50;85.70;;;15.45;100.00;95828.28;4998682;28;21019;-64
2022/06/25 00:27:02;;;;;;;2.55;0.70;;;16.50;86.10;;;15.45;100.00;95827.47;5002028;28;20077;-65
2022/06/25 00:29:28;;;;;;;1.23;0.77;;;16.50;86.00;;;15.41;100.00;95823.69;5003520;28;20029;-65
2022/06/25 00:31:54;;;;;;;1.48;0.70;;;16.50;85.90;;;15.37;100.00;95833.09;5000463;28;20038;-65
2022/06/25 00:34:20;;;;;;;1.60;0.80;;;16.40;86.10;;;15.38;100.00;95830.22;4999224;28;21594;-64
2022/06/25 00:36:46;;;;;;;2.40;0.80;;;16.40;86.20;;;15.35;100.00;95829.84;5000671;28;20469;-64
2022/06/25 00:39:11;;;;;;;1.75;0.80;;;16.40;86.10;;;15.34;100.00;95834.34;4981658;28;20077;-65
2022/06/25 00:41:37;;;;;;;3.15;0.73;;;16.40;86.10;;;15.35;100.00;95829.84;5006066;28;20038;-65
2022/06/25 00:44:07;;;;;;;1.17;0.70;;;16.40;85.90;;;15.29;100.00;95829.72;5001809;28;20049;-64
2022/06/25 00:46:33;;;;;;;1.38;0.70;;;16.30;85.80;;;15.28;100.00;95830.75;4981351;28;20034;-65
2022/06/25 00:48:59;;;;;;;2.17;0.90;;;16.40;86.10;;;15.29;100.00;95826.28;5000451;28;20049;-64
2022/06/25 00:51:25;;;;;;;0.80;0.63;;;16.40;86.10;;;15.30;100.00;95831.34;5004696;28;20038;-64
2022/06/25 00:53:50;;;;;;;2.00;0.95;;;16.40;85.80;;;15.29;100.00;95831.56;4971666;28;20061;-65
2022/06/25 00:56:16;;;;;;;2.10;1.02;;;16.40;85.80;;;15.28;100.00;95829.97;4976306;28;20062;-65
2022/06/25 00:58:43;;;;;;;3.13;0.90;;;16.40;85.90;;;15.30;100.00;95838.50;4973191;28;20078;-64
2022/06/25 01:01:09;;;;;;;1.35;0.60;;;16.40;85.80;;;15.30;100.00;95834.00;5001979;28;20065;-65
2022/06/25 01:03:36;;;;;;;1.88;0.77;;;16.40;85.70;;;15.30;100.00;95828.69;5003031;28;20069;-65
2022/06/25 01:06:03;;;;;;;1.85;0.70;;;16.50;85.70;;;15.30;100.00;95834.00;4985150;28;20532;-64
2022/06/25 01:08:29;;;;;;;1.27;0.70;;;16.40;85.60;;;15.32;100.00;95831.13;5004315;28;20037;-64
2022/06/25 01:10:55;;;;;;;3.95;0.60;;;16.40;85.40;;;15.33;100.00;95827.44;5002115;28;20070;-64
2022/06/25 01:13:23;;;;;;;1.20;0.50;;;16.40;85.50;;;15.33;100.00;95828.25;5003236;28;20088;-64
2022/06/25 01:15:49;;;;;;;1.27;0.60;;;16.50;85.50;;;15.35;100.00;95827.22;5001961;28;20119;-64
2022/06/25 01:18:15;;;;;;;1.75;0.70;;;16.50;85.50;;;15.35;100.00;95824.56;4998745;28;20050;-64
2022/06/25 01:20:42;;;;;;;1.83;0.60;;;16.40;85.20;;;15.36;100.00;95826.16;4984164;28;20034;-65
2022/06/25 01:23:09;;;;;;;1.48;0.60;;;16.50;85.40;;;15.37;100.00;95828.59;5005057;28;20030;-64
2022/06/25 01:25:36;;;;;;;0.95;0.55;;;16.60;85.30;;;15.41;100.00;95827.13;5001605;28;20088;-64
2022/06/25 01:28:03;;;;;;;0.85;0.65;;;16.60;85.30;;;15.42;100.00;95830.59;4988840;28;20525;-64
2022/06/25 01:30:28;;;;;;;2.10;0.60;;;16.60;85.10;;;15.44;100.00;95837.28;4959251;28;20390;-64
2022/06/25 01:32:54;;;;;;;1.10;0.70;;;16.60;85.00;;;15.45;100.00;95825.66;5003891;28;20135;-64
2022/06/25 01:35:20;;;;;;;1.13;0.70;;;16.70;85.20;;;15.47;100.00;95828.88;4986338;28;20418;-65
2022/06/25 01:37:45;;;;;;;2.33;0.60;;;16.70;85.10;;;15.46;100.00;95826.44;4986434;28;20068;-64
2022/06/25 01:40:11;;;;;;;1.50;0.70;;;16.60;84.80;;;15.45;100.00;95835.44;5001175;28;20107;-65
2022/06/25 01:45:21;;;;;;;1.25;0.70;;;16.60;85.00;;;15.42;100.00;95833.25;5001761;28;20555;-64
2022/06/25 01:47:47;;;;;;;2.58;0.77;;;16.60;84.80;;;15.41;100.00;95828.97;5002628;28;20058;-64
2022/06/25 01:50:13;;;;;;;1.92;0.73;;;16.60;85.10;;;15.40;100.00;95832.66;4988434;28;20068;-65
2022/06/25 01:52:40;;;;;;;1.55;0.80;;;16.50;85.10;;;15.37;100.00;95833.91;4978181;28;20030;-64
2022/06/25 01:55:07;;;;;;;0.80;0.70;;;16.50;85.10;;;15.32;100.00;95834.56;4986533;28;20426;-64
2022/06/25 01:57:32;;;;;;;1.02;0.70;;;16.40;85.20;;;15.32;100.00;95831.13;5001978;28;20469;-64
2022/06/25 01:59:58;;;;;;;2.17;0.63;;;16.50;85.20;;;15.31;100.00;95825.00;5002359;28;20077;-64
2022/06/25 02:02:24;;;;;;;1.10;0.75;;;16.50;85.60;;;15.32;100.00;95833.75;4987263;28;20045;-64
2022/06/25 02:04:50;;;;;;;3.00;0.80;;;16.40;85.30;;;15.31;100.00;95832.97;4978134;28;20046;-64
2022/06/25 02:07:15;;;;;;;2.25;0.57;;;16.50;85.50;;;15.32;100.00;95826.63;4983788;28;20042;-64
2022/06/25 02:09:41;;;;;;;2.97;0.80;;;16.60;85.30;;;15.34;100.00;95821.09;5003524;28;20034;-64
2022/06/25 02:12:07;;;;;;;2.33;0.70;;;16.50;85.50;;;15.33;100.00;95822.94;5001736;28;20038;-64
2022/06/25 02:14:33;;;;;;;3.22;0.77;;;16.60;85.40;;;15.33;100.00;95830.88;4998609;28;20053;-66
2022/06/25 02:16:58;;;;;;;1.90;0.50;;;16.60;85.50;;;15.32;100.00;95829.28;5005330;28;20103;-64
2022/06/25 02:19:24;;;;;;;2.15;0.93;;;16.50;85.40;;;15.31;100.00;95825.00;4988557;28;20036;-65
2022/06/25 02:21:50;;;;;;;0.93;0.60;;;16.50;85.70;;;15.29;100.00;95829.72;4991925;28;20041;-64
2022/06/25 02:24:16;;;;;;;3.17;0.75;;;16.50;85.40;;;15.27;100.00;95834.44;5002520;28;20096;-64
2022/06/25 02:26:42;;;;;;;1.25;0.75;;;16.50;85.70;;;15.28;100.00;95836.06;4991126;28;20036;-65
2022/06/25 02:29:07;;;;;;;2.10;0.77;;;16.50;85.50;;;15.29;100.00;95836.88;5002741;28;20041;-64
2022/06/25 02:31:33;;;;;;;1.33;0.65;;;16.60;85.60;;;15.30;100.00;95841.13;4999462;28;20096;-65
2022/06/25 02:33:59;;;;;;;2.28;0.70;;;16.50;85.40;;;15.30;100.00;95839.28;4988834;28;20568;-64
2022/06/25 02:36:25;;;;;;;2.30;0.63;;;16.50;85.70;;;15.31;100.00;95835.59;4990670;28;20046;-64
2022/06/25 02:38:50;;;;;;;1.20;0.63;;;16.60;85.50;;;15.33;100.00;95844.13;5013161;28;20533;-64
2022/06/25 02:41:16;;;;;;;1.83;0.57;;;16.50;85.50;;;15.33;100.00;95843.34;5005018;28;20387;-64
2022/06/25 02:43:42;;;;;;;0.60;0.60;;;16.50;85.60;;;15.33;100.00;95838.03;4987018;28;20034;-64
2022/06/25 02:46:08;;;;;;;2.17;0.70;;;16.50;85.40;;;15.35;100.00;95837.81;5000947;28;20030;-64
2022/06/25 02:48:34;;;;;;;3.92;0.90;;;16.60;85.60;;;15.35;100.00;95843.09;4968912;28;20105;-64
2022/06/25 02:51:00;;;;;;;2.75;0.63;;;16.50;85.50;;;15.38;100.00;95847.94;5018476;28;20204;-64
2022/06/25 02:53:25;;;;;;;3.00;0.75;;;16.60;85.60;;;15.39;100.00;95852.22;4995699;28;20056;-64
2022/06/25 02:58:54;;;;;;;3.03;0.88;;;16.60;85.30;;;15.41;100.00;95850.19;5003418;28;20478;-64
2022/06/25 03:01:20;;;;;;;2.25;0.90;;;16.60;85.40;;;15.43;100.00;95853.41;5005348;28;20049;-64
2022/06/25 03:03:45;;;;;;;2.33;0.80;;;16.70;85.20;;;15.45;100.00;95846.03;5003722;28;20038;-64
2022/06/25 03:06:11;;;;;;;2.10;0.80;;;16.70;85.30;;;15.46;100.00;95852.97;5005019;28;20046;-64
2022/06/25 03:08:37;;;;;;;1.85;0.60;;;16.70;85.20;;;15.47;100.00;95852.72;5002484;28;20108;-64
2022/06/25 03:11:03;;;;;;;1.08;0.70;;;16.80;85.20;;;15.49;100.00;95857.81;5004929;28;20085;-64
2022/06/25 03:13:31;;;;;;;2.08;0.90;;;16.80;85.10;;;15.51;100.00;95853.09;4986795;28;20057;-64
2022/06/25 03:15:57;;;;;;;1.17;0.73;;;16.80;85.00;;;15.50;100.00;95854.94;4997327;28;20037;-63
2022/06/25 03:18:23;;;;;;;2.63;1.00;;;16.70;85.00;;;15.50;100.00;95854.94;4986897;28;20343;-64
2022/06/25 03:20:50;;;;;;;2.97;1.40;;;16.70;85.10;;;15.50;100.00;95862.88;4995248;28;20088;-64
2022/06/25 03:23:16;;;;;;;5.63;1.17;;;16.80;85.10;;;15.51;100.00;95861.03;4991770;28;20049;-63
2022/06/25 03:25:42;;;;;;;4.80;1.08;;;16.80;85.30;;;15.51;100.00;95861.84;4992092;28;20056;-64
2022/06/25 03:28:07;;;;;;;1.77;0.90;;;16.80;85.20;;;15.52;100.00;95857.34;4985242;28;20037;-64
2022/06/25 03:30:33;;;;;;;3.15;1.00;;;16.70;84.70;;;15.51;100.00;95861.03;4987463;28;20406;-63
2022/06/25 03:32:59;;;;;;;3.45;1.05;;;16.80;85.00;;;15.52;100.00;95873.25;4964175;28;20039;-65
2022/06/25 03:35:25;;;;;;;1.52;0.80;;;16.80;85.00;;;15.52;100.00;95871.41;4985969;28;20466;-65
2022/06/25 03:37:50;;;;;;;2.17;0.80;;;16.80;84.80;;;15.54;100.00;95868.53;4969558;28;20501;-65
2022/06/25 03:40:17;;;;;;;3.05;0.85;;;16.80;84.70;;;15.54;100.00;95876.50;5002161;28;20061;-65
2022/06/25 03:42:43;;;;;;;1.75;0.80;;;16.80;84.60;;;15.55;100.00;95870.16;4989551;28;20022;-65
2022/06/25 03:45:09;;;;;;;4.18;1.13;;;16.90;84.60;;;15.54;100.00;95868.53;5002793;28;20060;-64
2022/06/25 03:47:35;;;;;;;3.33;0.85;;;16.90;84.60;;;15.55;100.00;95872.81;4988109;28;20119;-65
2022/06/25 03:50:00;;;;;;;1.45;0.80;;;16.90;84.60;;;15.53;100.00;95867.72;5007169;28;20038;-66
2022/06/25 03:52:26;;;;;;;2.05;0.98;;;16.80;84.50;;;15.52;100.00;95871.41;5005367;28;20092;-64
2022/06/25 03:54:52;;;;;;;2.65;1.00;;;16.80;84.60;;;15.52;100.00;95867.94;4989689;28;20049;-64
2022/06/25 03:57:18;;;;;;;4.03;0.90;;;16.80;84.90;;;15.54;100.00;95872.00;5004295;28;20054;-65
2022/06/25 03:59:43;;;;;;;2.97;0.90;;;16.80;84.80;;;15.55;100.00;95875.44;5006045;28;20105;-65
2022/06/25 04:02:09;;;;;;;3.40;1.10;;;16.90;84.40;;;15.54;100.00;95873.84;4990603;28;20057;-65
2022/06/25 04:04:35;;;;;;;2.47;1.30;;;16.80;84.40;;;15.52;100.00;95878.56;5005440;28;20450;-65
2022/06/25 04:07:00;;;;;;;3.50;1.15;;;16.70;84.60;;;15.50;100.00;95877.97;5004402;28;20104;-64
2022/06/25 04:09:26;;;;;;;0.75;0.70;;;16.70;85.00;;;15.48;100.00;95877.41;5006736;28;20044;-65
2022/06/25 04:11:52;;;;;;;3.42;0.90;;;16.70;84.80;;;15.46;100.00;95898.81;5008058;28;20057;-65
2022/06/25 04:14:17;;;;;;;3.45;1.02;;;16.70;85.20;;;15.46;100.00;95896.19;5005664;28;20587;-65
2022/06/25 04:16:43;;;;;;;2.28;0.90;;;16.60;85.10;;;15.47;100.00;95896.97;5006781;28;20426;-65
2022/06/25 04:19:09;;;;;;;5.07;1.10;;;16.70;85.10;;;15.49;100.00;95889.63;5002656;28;20066;-65
2022/06/25 04:21:35;;;;;;;2.35;1.20;;;16.80;85.10;;;15.52;100.00;95894.47;4986015;28;20131;-65
2022/06/25 04:24:00;;;;;;;3.85;0.90;;;16.80;85.10;;;15.50;100.00;95886.75;4990133;28;20038;-65
2022/06/25 04:26:26;;;;;;;2.35;0.90;;;16.70;84.60;;;15.49;100.00;95900.22;4987970;28;20042;-64
2022/06/25 04:29:04;;;;;;;1.48;0.60;;;16.80;84.70;;;15.54;100.00;95897.69;5009089;28;20041;-64
2022/06/25 04:31:34;;;;;;;5.22;0.98;;;16.80;84.60;;;15.52;100.00;95897.91;4991764;28;20513;-65
2022/06/25 04:34:00;;;;;;;1.85;0.70;;;16.70;84.20;;;15.50;100.00;95907.94;4999264;28;20050;-65
2022/06/25 04:36:26;;;;;;;3.08;0.95;;;16.80;84.40;;;15.50;100.00;95899.19;4978761;28;20044;-65
2022/06/25 04:38:52;;;;;;;1.90;0.93;;;16.80;84.30;;;15.52;100.00;95899.75;4981525;28;20038;-67
2022/06/25 04:41:18;;;;;;;4.50;0.95;;;16.80;83.90;;;15.57;100.00;95907.84;4989052;28;20104;-66
2022/06/25 04:43:43;;;;;;;3.03;0.70;;;16.90;84.10;;;15.61;100.00;95898.44;4992910;28;20034;-65
2022/06/25 04:46:09;;;;;;;1.88;0.80;;;17.00;83.70;;;15.64;100.00;95903.31;5009224;28;20239;-65
2022/06/25 04:48:35;;;;;;;2.65;0.75;;;17.10;83.60;;;15.69;100.00;95907.94;5001001;28;20033;-66
2022/06/25 04:51:01;;;;;;;2.33;1.02;;;17.10;83.40;;;15.70;100.00;95907.72;5009317;28;20440;-65
2022/06/25 04:53:26;;;;;;;2.45;0.88;;;17.10;83.30;;;15.72;100.00;95910.94;5009042;28;20022;-65
2022/06/25 04:55:52;;;;;;;1.35;1.00;;;17.10;83.20;;;15.77;100.00;95908.41;5008404;28;20030;-65
2022/06/25 04:58:18;;;;;;;2.10;0.88;;;17.20;83.30;;;15.84;100.00;95909.16;5007976;28;20034;-65
2022/06/25 05:00:44;;;;;;;3.22;0.75;;;17.40;83.50;;;15.90;100.00;95913.53;5010337;28;20393;-66
2022/06/25 05:03:09;;;;;;;3.00;0.93;;;17.40;82.70;;;15.96;100.00;95911.00;4992620;28;20067;-65
2022/06/25 05:05:36;;;;;;;1.33;0.60;;;17.50;82.70;;;16.02;100.00;95905.59;4991474;28;20112;-66
2022/06/25 05:08:01;;;;;;;1.67;0.70;;;17.60;83.10;;;16.11;100.00;95919.38;4966572;28;20561;-65
2022/06/25 05:10:27;;;;;;;2.88;0.77;;;17.60;83.10;;;16.15;100.00;95920.53;5001511;28;20122;-66
2022/06/25 05:13:11;;;;;;;2.83;0.70;;;17.60;81.70;;;16.17;100.00;95919.25;5008616;28;20057;-66
2022/06/25 05:15:39;;;;;;;1.83;0.63;;;17.60;81.70;;;16.20;100.00;95929.41;4990367;28;20448;-65
2022/06/25 05:18:06;;;;;;;3.47;1.00;;;17.70;82.10;;;16.27;100.00;95923.97;5004580;28;20037;-65
2022/06/25 05:20:32;;;;;;;2.55;0.82;;;17.70;81.60;;;16.31;100.00;95924.34;5007990;28;20041;-65
2022/06/25 05:22:58;;;;;;;2.25;0.80;;;17.80;82.00;;;16.37;100.00;95924.25;4991799;28;20033;-65
2022/06/25 05:25:24;;;;;;;4.88;0.98;;;17.90;81.70;;;16.42;100.00;95929.66;5006975;28;20072;-66
2022/06/25 05:27:49;;;;;;;3.97;0.68;;;18.00;81.60;;;16.50;100.00;95929.31;4983527;28;20413;-65
2022/06/25 05:30:15;;;;;;;2.05;0.80;;;18.10;81.50;;;16.57;100.00;95925.75;5003602;28;20454;-65
2022/06/25 05:32:41;;;;;;;5.22;0.85;;;18.10;80.30;;;16.63;100.00;95922.19;4972550;28;20521;-65
2022/06/25 05:35:08;;;;;;;0.98;0.60;;;18.20;80.40;;;16.70;100.00;95925.56;4988350;28;20180;-65
2022/06/25 05:37:34;;;;;;;1.60;0.80;;;18.30;80.90;;;16.79;100.00;95938.28;4982697;28;20034;-65
2022/06/25 05:39:59;;;;;;;3.05;0.88;;;18.50;80.40;;;16.90;100.00;95933.97;5019101;28;20115;-65
2022/06/25 05:42:25;;;;;;;1.42;0.70;;;18.60;79.50;;;16.99;100.00;95937.09;5006317;28;20595;-65
2022/06/25 05:44:51;;;;;;;2.17;0.90;;;18.70;79.30;;;17.10;100.00;95938.91;4987296;28;20621;-65
2022/06/25 05:47:16;;;;;;;4.15;1.02;;;18.80;78.70;;;17.19;100.00;95942.03;5005111;28;20123;-65
2022/06/25 05:49:42;;;;;;;2.53;1.08;;;18.80;78.20;;;17.24;100.00;95929.66;5007408;28;20081;-65
2022/06/25 05:52:08;;;;;;;2.13;0.80;;;18.90;77.60;;;17.31;100.00;95935.66;5010701;28;20061;-65
2022/06/25 05:54:34;;;;;;;1.73;0.80;;;19.00;77.50;;;17.37;100.00;95933.88;4993901;28;20029;-65
2022/06/25 05:56:59;;;;;;;2.00;0.70;;;19.00;77.20;;;17.45;100.00;95933.53;5003271;28;20083;-66
2022/06/25 05:59:25;;;;;;;1.23;0.68;;;19.20;77.30;;;17.54;100.00;95934.78;4997411;28;20034;-65
2022/06/25 06:01:51;;;;;;;1.77;0.80;;;19.40;77.40;;;17.66;100.00;95937.41;5010507;28;21000;-66
2022/06/25 06:04:16;;;;;;;1.75;0.70;;;19.50;76.80;;;17.77;100.00;95939.22;5002350;28;20107;-65
2022/06/25 06:06:42;;;;;;;3.53;0.90;;;19.60;76.00;;;17.86;100.00;95945.78;5011484;28;20108;-66
2022/06/25 06:09:08;;;;;;;1.70;0.73;;;19.60;76.00;;;17.95;100.00;95948.88;5010549;28;20062;-66
2022/06/25 06:11:34;;;;;;;2.10;0.70;;;19.70;75.10;;;18.00;100.00;95938.31;5011218;28;20117;-66
2022/06/25 06:13:59;;;;;;;3.70;0.90;;;19.60;73.90;;;18.03;100.00;95943.16;5010106;28;20057;-66
2022/06/25 06:16:25;;;;;;;2.78;0.60;;;19.70;74.70;;;18.11;100.00;95948.09;5011059;28;20718;-65
2022/06/25 06:18:51;;;;;;;3.05;0.63;;;19.90;75.50;;;18.22;100.00;95947.22;5010759;28;20034;-65
2022/06/25 06:21:16;;;;;;;3.03;0.82;;;20.10;76.00;;;18.32;100.00;95952.72;4994434;28;20149;-66
2022/06/25 06:23:42;;;;;;;1.35;0.80;;;20.10;74.50;;;18.35;100.00;95954.91;4990279;28;20038;-66
2022/06/25 06:26:08;;;;;;;2.38;0.80;;;20.10;73.20;;;18.40;99.45;95954.19;5002841;28;20104;-65
2022/06/25 06:28:34;;;;;;;1.38;0.60;;;20.10;73.20;;;18.46;98.74;95952.41;4991852;28;20037;-64
2022/06/25 06:30:59;;;;;;;2.65;0.93;;;20.10;73.30;;;18.50;98.56;95958.84;4991268;28;20042;-65
2022/06/25 06:33:25;;;;;;;3.05;0.88;;;20.30;73.40;;;18.54;99.80;95952.78;5004593;28;20042;-65
2022/06/25 06:35:51;;;;;;;1.85;0.70;;;20.40;73.70;;;18.64;99.51;95966.31;5009675;28;20050;-67
2022/06/25 06:38:17;;;;;;;4.20;0.80;;;20.60;73.70;;;18.74;99.24;95964.84;5006857;28;20060;-66
2022/06/25 06:40:42;;;;;;;3.45;0.60;;;20.60;72.40;;;18.80;97.12;95974.56;4983441;28;20034;-66
2022/06/25 06:43:08;;;;;;;1.35;0.70;;;20.60;71.30;;;18.89;97.17;95973.09;5004375;28;20042;-65
2022/06/25 06:45:34;;;;;;;1.60;0.68;;;20.80;72.20;;;18.93;96.62;95979.53;5007928;28;20062;-65
2022/06/25 06:47:59;;;;;;;2.08;0.73;;;20.70;70.80;;;18.91;95.94;95979.78;5007344;28;20034;-65
2022/06/25 06:50:25;;;;;;;4.50;0.70;;;20.60;71.00;;;18.96;95.34;95979.84;5005936;28;20077;-65
2022/06/25 06:52:51;;;;;;;2.35;0.70;;;20.70;70.50;;;19.02;95.87;95979.94;4993255;28;20026;-64
2022/06/25 06:55:17;;;;;;;2.95;0.70;;;20.80;71.70;;;19.09;95.41;95975.25;4993732;28;20030;-64
2022/06/25 06:57:43;;;;;;;3.90;0.93;;;21.00;71.10;;;19.19;95.17;95988.72;5004785;28;20058;-66
2022/06/25 07:00:09;;;;;;;1.75;0.90;;;21.10;71.30;;;19.27;96.30;95983.78;4989234;28;20038;-65
2022/06/25 07:02:35;;;;;;;3.03;0.73;;;21.30;71.30;;;19.38;95.96;95981.22;5007396;28;20511;-65
2022/06/25 07:05:00;;;;;;;0.90;0.70;;;21.40;70.60;;;19.45;94.73;95988.00;4991171;28;20057;-65
2022/06/25 07:07:26;;;;;;;1.98;0.98;;;21.50;70.30;;;19.51;93.58;95987.03;5005485;28;20038;-65
2022/06/25 07:09:52;;;;;;;3.30;1.52;;;21.50;69.30;;;19.55;93.92;95984.69;5007262;28;20124;-65
2022/06/25 07:12:17;;;;;;;2.10;1.27;;;21.50;69.50;;;19.64;93.63;95993.06;5006338;28;20068;-66
2022/06/25 07:14:43;;;;;;;2.55;0.80;;;21.60;69.20;;;19.70;92.10;95984.09;5006715;28;20042;-66
2022/06/25 07:17:09;;;;;;;2.10;0.80;;;21.70;69.00;;;19.73;91.92;95978.25;4989912;28;20114;-64
2022/06/25 07:19:35;;;;;;;2.00;0.73;;;21.60;67.40;;;19.78;90.82;95979.09;5007578;28;20038;-65
2022/06/25 07:22:00;;;;;;;2.67;0.75;;;21.70;66.60;;;19.86;90.12;95977.84;5003523;28;20093;-64
2022/06/25 07:24:26;;;;;;;1.77;0.80;;;21.80;66.60;;;19.89;88.81;95974.66;4999991;28;20105;-65
2022/06/25 07:26:52;;;;;;;1.95;0.50;;;21.70;66.20;;;19.95;89.21;95965.69;5006110;28;20042;-64
2022/06/25 07:29:17;;;;;;;1.38;0.60;;;21.90;66.30;;;20.04;89.64;95974.84;5005303;28;20056;-64
2022/06/25 07:31:43;;;;;;;2.40;0.70;;;22.00;67.00;;;20.14;88.98;95966.94;5007575;28;20049;-65
2022/06/25 07:34:09;;;;;;;1.83;0.70;;;22.20;66.80;;;20.23;88.61;95958.47;5006762;28;20038;-64
2022/06/25 07:36:35;;;;;;;2.00;0.70;;;22.30;66.10;;;20.31;87.68;95964.16;4990742;28;20062;-64
2022/06/25 07:39:00;;;;;;;2.63;0.60;;;22.40;64.70;;;20.37;87.06;95963.16;4990090;28;20038;-64
2022/06/25 07:41:27;;;;;;;4.68;0.93;;;22.50;65.10;;;20.47;87.33;95963.25;5005165;28;20057;-64
2022/06/25 07:43:53;;;;;;;1.45;0.60;;;22.60;64.50;;;20.60;87.55;95955.88;5006541;28;20573;-64
2022/06/25 07:46:19;;;;;;;1.80;0.70;;;22.90;65.00;;;20.71;86.48;95955.69;5004188;28;20123;-65
2022/06/25 07:48:44;;;;;;;2.00;1.52;;;23.00;63.10;;;20.87;86.32;95958.50;5007151;28;20421;-64
2022/06/25 07:53:55;;;;;;;3.25;0.70;;;23.60;61.90;;;21.05;84.65;95958.88;4992233;28;20077;-66
2022/06/25 07:56:21;;;;;;;2.35;0.70;;;23.20;61.30;;;21.09;84.28;95959.16;5005426;28;20042;-65
2022/06/25 07:58:48;;;;;;;1.58;0.80;;;23.30;62.60;;;21.11;83.21;95967.75;5006186;28;20038;-65
2022/06/25 08:01:13;;;;;;;2.15;1.15;;;23.10;60.50;;;21.05;82.22;95963.44;5008080;28;20421;-65
2022/06/25 08:03:39;;;;;;;0.63;0.55;;;23.00;62.20;;;21.05;83.34;95960.75;5007161;28;20049;-64
2022/06/25 08:06:05;;;;;;;2.25;0.80;;;23.00;63.40;;;20.98;82.01;95962.84;5005857;28;20034;-65
2022/06/25 08:08:30;;;;;;;1.17;0.80;;;22.70;62.30;;;20.88;82.26;95962.78;4972527;28;20037;-64
2022/06/25 08:10:56;;;;;;;0.63;0.60;;;22.60;62.50;;;20.90;83.45;95960.66;5007053;28;20107;-64
2022/06/25 08:13:22;;;;;;;1.75;0.60;;;23.40;63.20;;;21.05;83.88;95963.44;4991961;28;20037;-64
2022/06/25 08:15:49;;;;;;;3.78;0.70;;;24.10;60.80;;;21.16;83.09;95965.09;4991418;28;20034;-64
2022/06/25 08:18:15;;;;;;;2.00;0.80;;;24.30;59.20;;;21.24;82.69;95964.63;5007885;28;20026;-63
2022/06/25 08:20:40;;;;;;;2.85;1.00;;;24.40;58.30;;;21.37;81.74;95956.13;5004853;28;20506;-64
2022/06/25 08:23:06;;;;;;;1.27;0.70;;;24.80;57.80;;;21.62;82.71;95954.63;5002902;28;20069;-65
2022/06/25 08:25:32;;;;;;;2.22;0.90;;;25.40;58.40;;;21.93;83.09;95952.84;5003421;28;20030;-64
2022/06/25 08:27:57;;;;;;;2.00;0.73;;;25.80;56.70;;;22.11;81.38;95954.25;5005799;28;20457;-64
2022/06/25 08:30:23;;;;;;;0.73;0.57;;;25.90;54.00;;;22.34;80.91;95947.59;5006247;28;20548;-64
2022/06/25 08:32:49;;;;;;;1.70;0.52;;;26.30;54.00;;;22.59;78.92;95944.94;4982700;28;20040;-64
2022/06/25 08:35:16;;;;;;;1.77;0.60;;;26.60;50.20;;;22.88;76.83;95947.91;4987868;28;20038;-63
2022/06/25 08:37:46;;;;;;;2.13;0.80;;;26.90;49.50;;;23.00;72.99;95945.72;5005713;28;20420;-66
2022/06/25 08:40:12;;;;;;;1.70;0.50;;;26.10;50.80;;;23.03;73.90;95949.75;5002593;28;20038;-64
2022/06/25 08:42:38;;;;;;;0.80;0.40;;;25.90;51.40;;;23.22;74.49;95948.91;5006657;28;20091;-64
2022/06/25 08:45:04;;;;;;;1.27;0.50;;;26.70;51.90;;;23.44;74.06;95948.56;5003312;28;20118;-64
2022/06/25 08:47:30;;;;;;;0.47;0.32;;;27.10;50.60;;;23.64;71.89;95944.22;5001826;28;20121;-64
2022/06/25 08:49:55;;;;;;;2.20;0.52;;;27.30;46.00;;;23.84;70.86;95938.78;4994148;28;20036;-69
2022/06/25 08:52:21;;;;;;;4.93;0.80;;;27.30;47.40;;;24.02;68.95;95938.13;4972975;28;20131;-64
2022/06/25 08:54:47;;;;;;;1.50;0.50;;;27.40;45.60;;;24.35;69.74;95938.47;4997366;28;20053;-65
2022/06/25 08:57:13;;;;;;;1.20;0.50;;;28.10;48.10;;;24.71;69.94;95936.31;4989073;28;20046;-68
2022/06/25 08:59:39;;;;;;;1.23;0.40;;;28.30;47.50;;;25.00;68.75;95939.03;5005917;28;20041;-64
2022/06/25 09:02:04;;;;;;;0.93;0.50;;;28.30;46.80;;;25.19;68.65;95926.47;5005140;28;20193;-65
2022/06/25 09:04:31;;;;;;;1.65;0.63;;;28.60;47.40;;;25.54;68.77;95922.53;4987886;28;20335;-65
2022/06/25 09:07:11;;;;;;;1.67;0.50;;;29.10;46.70;;;25.88;60.42;95927.00;5000976;28;20620;-64
2022/06/25 09:09:36;;;;;;;1.20;0.60;;;29.20;43.30;;;26.14;64.69;95925.56;5003457;28;20084;-64
2022/06/25 09:12:05;;;;;;;3.13;0.70;;;29.30;43.50;;;26.30;64.10;95923.44;4988083;28;20531;-65
2022/06/25 09:14:32;;;;;;;3.00;0.63;;;29.60;44.00;;;26.49;63.90;95916.16;5004103;28;20038;-65
2022/06/25 09:17:05;;;;;;;0.73;0.57;;;29.40;44.70;;;26.62;59.03;95914.59;4989982;28;20061;-66
2022/06/25 09:19:37;;;;;;;2.22;0.70;;;29.60;42.10;;;26.62;57.83;95914.59;5004648;28;20033;-66
2022/06/25 09:22:08;;;;;;;0.98;0.40;;;29.00;42.40;;;26.69;59.05;95915.00;5004970;28;20042;-65
2022/06/25 09:24:59;;;;;;;2.60;0.80;;;29.30;44.40;;;26.82;53.64;95919.66;4985081;28;20039;-66
2022/06/25 09:27:36;;;;;;;1.80;0.50;;;29.50;40.20;;;26.94;54.79;95911.09;4977057;28;20069;-66
2022/06/25 09:30:13;;;;;;;2.75;1.10;;;29.90;40.30;;;27.23;55.51;95918.16;5006003;28;20575;-68
2022/06/25 09:32:58;;;;;;;4.35;1.33;;;30.40;41.30;;;27.42;53.97;95908.84;4993099;28;20152;-67
2022/06/25 09:35:35;;;;;;;2.97;1.00;;;30.30;40.20;;;27.43;53.51;95907.75;5008809;28;20070;-67
2022/06/25 09:38:08;;;;;;;1.48;0.77;;;29.80;41.20;;;27.42;55.35;95913.47;5008778;28;20056;-67
2022/06/25 09:40:35;;;;;;;1.70;0.52;;;30.00;40.50;;;27.55;54.85;95914.53;5007181;28;20034;-67
2022/06/25 09:43:14;;;;;;;2.17;0.57;;;30.30;39.30;;;27.44;51.27;95911.25;5009246;28;20033;-67
2022/06/25 09:45:42;;;;;;;0.70;0.40;;;29.60;40.50;;;27.19;54.87;95915.25;4990779;28;20034;-67
2022/06/25 09:48:09;;;;;;;2.03;0.40;;;29.10;42.40;;;26.85;53.70;95908.25;4973123;28;20251;-67
2022/06/25 09:50:35;;;;;;;1.83;0.50;;;28.50;41.50;;;26.83;53.95;95909.66;5005661;28;20037;-67
2022/06/25 09:53:01;;;;;;;2.00;1.00;;;29.00;42.20;;;26.98;55.03;95917.50;5008768;28;20390;-67
2022/06/25 09:55:34;;;;;;;1.15;0.50;;;30.00;42.10;;;27.28;52.47;95918.03;5004506;28;20053;-66
2022/06/25 09:58:00;;;;;;;1.30;0.60;;;30.30;40.50;;;27.19;55.05;95912.53;5007896;28;20481;-67
2022/06/25 10:00:26;;;;;;;1.70;0.60;;;30.00;42.20;;;27.49;55.86;95911.13;5009079;28;20484;-67
2022/06/25 10:02:52;;;;;;;1.58;0.52;;;31.10;41.20;;;27.91;54.93;95901.91;4995008;28;20037;-67
2022/06/25 10:05:27;;;;;;;1.58;0.50;;;32.00;38.70;;;28.33;52.67;95905.31;5006055;28;20546;-67
2022/06/25 10:08:06;;;;;;;1.38;0.43;;;32.40;38.00;;;28.66;54.75;95897.75;5007716;28;20029;-68
2022/06/25 10:10:37;;;;;;;3.47;0.50;;;32.20;38.70;;;28.55;51.59;95894.50;5006082;28;20030;-67
2022/06/25 10:13:03;;;;;;;4.15;0.60;;;31.30;38.90;;;28.43;53.51;95902.38;5008112;28;20129;-68
2022/06/25 10:15:29;;;;;;;1.45;0.60;;;31.10;39.70;;;28.43;52.36;95902.38;5007360;28;20108;-67
2022/06/25 10:17:55;;;;;;;0.40;0.30;;;30.90;38.80;;;28.21;51.86;95899.63;5003593;28;20045;-67
2022/06/25 10:20:21;;;;;;;0.75;0.50;;;30.30;39.10;;;28.15;51.46;95895.44;5005741;28;20501;-67
2022/06/25 10:22:48;;;;;;;0.73;0.60;;;30.80;39.20;;;28.57;51.39;95883.38;5006787;28;20507;-67
2022/06/25 10:25:19;;;;;;;2.25;0.60;;;32.10;37.60;;;29.13;51.17;95888.16;5008714;28;20116;-67
2022/06/25 10:27:47;;;;;;;1.63;0.60;;;33.10;36.60;;;29.74;49.63;95886.47;5008222;28;20026;-67